createdAt,value
2019-02-10T00:02:17.869Z,53.27
2019-02-10T00:04:47.955Z,67.47
2019-02-10T00:07:17.882Z,63.92
2019-02-10T00:09:48.002Z,63.77
2019-02-10T00:12:18.045Z,60.13
2019-02-10T00:14:48.173Z,57.53
2019-02-10T00:17:18.383Z,67.25
2019-02-10T00:19:48.379Z,56.37
2019-02-10T00:22:20.284Z,47.43
2019-02-10T00:24:50.372Z,42.10
2019-02-10T00:27:20.416Z,45.73
2019-02-10T00:29:50.308Z,42.57
2019-02-10T00:32:20.551Z,41.98
2019-02-10T00:34:52.044Z,38.55
2019-02-10T00:37:22.029Z,38.33
2019-02-10T00:39:52.111Z,44.77
2019-02-10T00:42:24.343Z,38.30
2019-02-10T00:44:54.383Z,34.80
2019-02-10T00:47:24.478Z,45.80
2019-02-10T00:49:54.875Z,31.02
2019-02-10T00:52:24.949Z,37.07
2019-02-10T00:54:55.056Z,48.43
2019-02-10T00:57:24.990Z,42.67
2019-02-10T00:59:55.063Z,41.77
2019-02-10T01:02:25.136Z,47.77
2019-02-10T01:04:56.828Z,44.53
2019-02-10T01:07:26.837Z,40.52
2019-02-10T01:09:56.856Z,48.33
2019-02-10T01:12:28.900Z,52.67
2019-02-10T01:14:58.984Z,46.28
2019-02-10T01:17:30.896Z,43.73
2019-02-10T01:20:00.901Z,45.97
2019-02-10T01:22:31.130Z,44.63
2019-02-10T01:25:02.114Z,43.33
2019-02-10T01:27:32.349Z,52.67
2019-02-10T01:30:04.720Z,36.50
2019-02-10T01:32:36.921Z,46.30
2019-02-10T01:35:07.466Z,52.40
2019-02-10T01:37:37.632Z,48.38
2019-02-10T01:40:08.815Z,30.90
2019-02-10T01:42:38.975Z,49.70
2019-02-10T01:45:10.467Z,48.97
2019-02-10T01:47:40.595Z,47.17
2019-02-10T01:50:11.478Z,50.95
2019-02-10T01:52:41.455Z,53.27
2019-02-10T01:55:13.139Z,44.57
2019-02-10T01:57:43.249Z,44.70
2019-02-10T02:00:15.057Z,48.63
2019-02-10T02:02:45.156Z,49.33
2019-02-10T02:05:15.298Z,46.10
2019-02-10T02:07:45.339Z,43.50
2019-02-10T02:10:18.136Z,49.17
2019-02-10T02:12:49.854Z,45.10
2019-02-10T02:15:21.815Z,37.25
2019-02-10T02:17:51.795Z,42.27
2019-02-10T02:20:21.775Z,42.23
2019-02-10T02:22:53.003Z,48.70
2019-02-10T02:25:23.040Z,43.60
2019-02-10T02:27:56.037Z,36.23
2019-02-10T02:30:38.294Z,45.12
2019-02-10T02:33:21.017Z,39.60
2019-02-10T02:35:51.191Z,32.10
2019-02-10T02:38:21.224Z,46.92
2019-02-10T02:40:51.252Z,37.05
2019-02-10T02:43:21.317Z,46.73
2019-02-10T02:45:51.616Z,31.45
2019-02-10T02:48:21.532Z,42.97
2019-02-10T02:50:51.691Z,38.90
2019-02-10T02:53:21.628Z,42.90
2019-02-10T02:55:51.748Z,33.47
2019-02-10T02:58:21.763Z,36.70
2019-02-10T03:00:52.072Z,46.90
2019-02-10T03:03:22.021Z,37.33
2019-02-10T03:05:52.118Z,40.17
2019-02-10T03:08:22.381Z,39.27
2019-02-10T03:10:52.459Z,33.83
2019-02-10T03:13:22.498Z,34.38
2019-02-10T03:15:52.832Z,28.60
2019-02-10T03:18:22.897Z,36.63
2019-02-10T03:20:52.871Z,36.30
2019-02-10T03:23:22.776Z,30.47
2019-02-10T03:25:52.719Z,32.33
2019-02-10T03:28:23.635Z,38.73
2019-02-10T03:31:06.157Z,41.58
2019-02-10T03:33:36.194Z,34.15
2019-02-10T03:36:25.359Z,35.68
2019-02-10T03:38:55.397Z,30.20
2019-02-10T03:41:25.314Z,39.27
2019-02-10T03:43:55.509Z,34.03
2019-02-10T03:46:25.497Z,29.97
2019-02-10T03:48:55.432Z,34.20
2019-02-10T03:51:25.311Z,23.83
2019-02-10T03:54:08.429Z,39.88
2019-02-10T03:56:39.483Z,29.47
2019-02-10T03:59:09.501Z,32.47
2019-02-10T04:01:39.420Z,26.05
2019-02-10T04:04:09.406Z,34.67
2019-02-10T04:06:39.324Z,34.40
2019-02-10T04:09:09.482Z,42.27
2019-02-10T04:11:39.498Z,37.80
2019-02-10T04:14:09.467Z,37.63
2019-02-10T04:16:39.442Z,36.20
2019-02-10T04:19:09.467Z,37.93
2019-02-10T04:21:39.857Z,35.63
2019-02-10T04:24:09.811Z,37.70
2019-02-10T04:26:39.947Z,44.98
2019-02-10T04:29:09.892Z,34.95
2019-02-10T04:31:39.782Z,30.93
2019-02-10T04:34:09.619Z,29.77
2019-02-10T04:36:39.547Z,32.67
2019-02-10T04:39:09.493Z,37.23
2019-02-10T04:41:39.392Z,35.68
2019-02-10T04:44:09.343Z,35.67
2019-02-10T04:46:39.422Z,30.83
2019-02-10T04:49:09.379Z,34.80
2019-02-10T04:51:39.450Z,37.13
2019-02-10T04:54:09.334Z,31.03
2019-02-10T04:56:39.280Z,30.70
2019-02-10T04:59:09.881Z,32.17
2019-02-10T05:01:40.261Z,35.50
2019-02-10T05:04:10.242Z,33.27
2019-02-10T05:06:40.286Z,36.90
2019-02-10T05:09:10.261Z,30.80
2019-02-10T05:11:40.378Z,39.20
2019-02-10T05:14:10.387Z,38.33
2019-02-10T05:16:40.399Z,32.30
2019-02-10T05:19:10.418Z,31.12
2019-02-10T05:21:40.411Z,31.27
2019-02-10T05:24:10.385Z,32.10
2019-02-10T05:26:40.479Z,31.33
2019-02-10T05:29:10.597Z,30.52
2019-02-10T05:31:40.650Z,29.50
2019-02-10T05:34:10.589Z,30.20
2019-02-10T05:36:40.875Z,26.17
2019-02-10T05:39:10.846Z,33.33
2019-02-10T05:41:41.823Z,37.25
2019-02-10T05:44:12.374Z,36.90
2019-02-10T05:46:46.306Z,29.70
2019-02-10T05:49:19.099Z,22.65
2019-02-10T05:51:49.232Z,32.67
2019-02-10T05:54:19.337Z,28.00
2019-02-10T05:56:49.399Z,31.03
2019-02-10T05:59:19.477Z,27.87
2019-02-10T06:02:27.698Z,28.33
2019-02-10T06:05:00.875Z,27.10
2019-02-10T06:07:30.978Z,36.73
2019-02-10T06:10:01.047Z,30.77
2019-02-10T06:12:31.200Z,36.23
2019-02-10T06:15:01.445Z,26.97
2019-02-10T06:17:31.597Z,27.10
2019-02-10T06:20:01.853Z,31.50
2019-02-10T06:22:31.910Z,26.68
2019-02-10T06:25:02.097Z,30.07
2019-02-10T06:27:32.058Z,27.73
2019-02-10T06:30:02.104Z,31.93
2019-02-10T06:32:32.305Z,27.63
2019-02-10T06:35:02.334Z,29.33
2019-02-10T06:37:32.431Z,30.30
2019-02-10T06:40:02.582Z,25.57
2019-02-10T06:42:32.763Z,28.98
2019-02-10T06:45:02.823Z,29.48
2019-02-10T06:47:32.882Z,36.60
2019-02-10T06:50:03.109Z,33.33
2019-02-10T06:52:33.999Z,30.02
2019-02-10T06:55:17.442Z,27.52
2019-02-10T06:57:47.710Z,25.50
2019-02-10T07:00:29.319Z,29.93
2019-02-10T07:03:56.746Z,34.40
2019-02-10T07:06:27.232Z,31.10
2019-02-10T07:08:57.403Z,25.33
2019-02-10T07:11:27.492Z,28.13
2019-02-10T07:13:59.640Z,19.27
2019-02-10T07:16:57.240Z,33.18
2019-02-10T07:20:05.840Z,29.83
2019-02-10T07:22:56.579Z,25.07
2019-02-10T07:25:46.422Z,28.20
2019-02-10T07:28:40.285Z,14.23
2019-02-10T07:31:10.582Z,27.03
2019-02-10T07:34:02.123Z,29.70
2019-02-10T07:36:56.347Z,29.23
2019-02-10T07:39:50.573Z,27.48
2019-02-10T07:42:49.816Z,19.40
2019-02-10T07:45:58.162Z,25.55
2019-02-10T07:48:36.913Z,24.02
2019-02-10T07:51:34.041Z,21.97
2019-02-10T07:54:16.807Z,17.42
2019-02-10T07:57:26.989Z,27.32
2019-02-10T08:00:22.173Z,28.80
2019-02-10T08:03:17.779Z,28.85
2019-02-10T08:06:26.217Z,25.60
2019-02-10T08:09:34.907Z,28.85
2019-02-10T08:12:43.920Z,27.80
2019-02-10T08:15:42.432Z,27.25
2019-02-10T08:18:21.587Z,24.23
2019-02-10T08:21:18.536Z,28.20
2019-02-10T08:23:59.466Z,28.60
2019-02-10T08:27:07.913Z,27.82
2019-02-10T08:30:01.450Z,29.27
2019-02-10T08:32:55.240Z,28.12
2019-02-10T08:35:49.070Z,24.40
2019-02-10T08:38:54.426Z,27.25
2019-02-10T08:42:00.737Z,20.52
2019-02-10T08:44:44.887Z,28.67
2019-02-10T08:47:40.462Z,22.77
2019-02-10T08:50:38.942Z,31.25
2019-02-10T08:53:20.520Z,25.27
2019-02-10T08:55:53.232Z,34.60
2019-02-10T08:58:37.907Z,24.32
2019-02-10T09:01:08.780Z,30.52
2019-02-10T09:03:39.643Z,18.77
2019-02-10T09:06:10.533Z,26.10
2019-02-10T09:08:41.188Z,30.00
2019-02-10T09:11:14.120Z,19.60
2019-02-10T09:13:47.559Z,31.77
2019-02-10T09:16:22.262Z,27.62
2019-02-10T09:19:02.557Z,27.98
2019-02-10T09:21:58.481Z,28.00
2019-02-10T09:24:39.286Z,20.20
2019-02-10T09:27:10.693Z,25.57
2019-02-10T09:29:40.936Z,26.97
2019-02-10T09:32:12.471Z,26.82
2019-02-10T09:34:54.572Z,22.80
2019-02-10T09:37:27.075Z,22.20
2019-02-10T09:39:57.251Z,31.17
2019-02-10T09:42:32.024Z,23.20
2019-02-10T09:45:05.741Z,29.40
2019-02-10T09:47:36.701Z,33.45
2019-02-10T09:50:13.208Z,26.85
2019-02-10T09:52:50.130Z,21.70
2019-02-10T09:55:22.761Z,29.80
2019-02-10T09:57:56.397Z,25.40
2019-02-10T10:00:31.801Z,26.00
2019-02-10T10:03:07.715Z,25.10
2019-02-10T10:05:39.488Z,27.35
2019-02-10T10:08:22.155Z,17.95
2019-02-10T10:10:54.955Z,22.15
2019-02-10T10:13:25.080Z,23.32
2019-02-10T10:15:55.313Z,38.98
2019-02-10T10:18:25.446Z,26.57
2019-02-10T10:21:07.182Z,24.30
2019-02-10T10:23:37.792Z,18.87
2019-02-10T10:26:07.925Z,31.00
2019-02-10T10:28:38.038Z,23.40
2019-02-10T10:31:09.348Z,27.42
2019-02-10T10:33:39.608Z,23.10
2019-02-10T10:36:09.962Z,22.10
2019-02-10T10:38:52.398Z,25.02
2019-02-10T10:41:22.630Z,21.02
2019-02-10T10:43:54.082Z,21.35
2019-02-10T10:46:24.195Z,27.45
2019-02-10T10:48:54.602Z,27.17
2019-02-10T10:51:24.954Z,21.75
2019-02-10T10:53:55.195Z,21.20
2019-02-10T10:56:27.032Z,23.40
2019-02-10T10:58:59.663Z,27.00
2019-02-10T11:01:42.635Z,22.58
2019-02-10T11:04:13.168Z,18.32
2019-02-10T11:06:43.250Z,17.42
2019-02-10T11:09:14.463Z,20.70
2019-02-10T11:11:44.802Z,20.30
2019-02-10T11:14:15.114Z,20.43
2019-02-10T11:16:45.434Z,21.35
2019-02-10T11:19:15.581Z,17.40
2019-02-10T11:21:45.755Z,15.45
2019-02-10T11:24:15.962Z,21.93
2019-02-10T11:26:46.192Z,26.02
2019-02-10T11:29:16.589Z,26.77
2019-02-10T11:31:46.627Z,23.95
2019-02-10T11:34:16.912Z,21.55
2019-02-10T11:36:46.947Z,23.67
2019-02-10T11:39:17.196Z,18.98
2019-02-10T11:41:47.252Z,17.48
2019-02-10T11:44:17.604Z,24.57
2019-02-10T11:46:47.947Z,19.37
2019-02-10T11:49:19.755Z,22.00
2019-02-10T11:51:49.954Z,22.50
2019-02-10T11:54:20.306Z,24.90
2019-02-10T11:56:50.643Z,15.80
2019-02-10T11:59:20.735Z,24.87
2019-02-10T12:01:50.854Z,24.43
2019-02-10T12:04:20.951Z,22.77
2019-02-10T12:06:50.975Z,23.80
2019-02-10T12:09:21.093Z,19.37
2019-02-10T12:11:51.228Z,27.27
2019-02-10T12:14:21.524Z,19.42
2019-02-10T12:16:51.656Z,21.20
2019-02-10T12:19:21.708Z,16.93
2019-02-10T12:21:51.750Z,22.93
2019-02-10T12:24:22.370Z,23.55
2019-02-10T12:26:52.455Z,23.05
2019-02-10T12:29:22.637Z,21.07
2019-02-10T12:31:52.724Z,27.37
2019-02-10T12:34:24.068Z,21.20
2019-02-10T12:36:54.561Z,31.20
2019-02-10T12:39:24.848Z,20.10
2019-02-10T12:41:55.108Z,26.23
2019-02-10T12:44:25.328Z,25.37
2019-02-10T12:46:55.428Z,26.77
2019-02-10T12:49:25.500Z,21.75
2019-02-10T12:51:55.565Z,20.30
2019-02-10T12:54:25.626Z,24.50
2019-02-10T12:56:55.780Z,21.68
2019-02-10T12:59:25.915Z,20.77
2019-02-10T13:01:56.094Z,22.25
2019-02-10T13:04:26.297Z,25.55
2019-02-10T13:06:56.398Z,19.67
2019-02-10T13:09:26.485Z,23.10
2019-02-10T13:11:58.438Z,21.87
2019-02-10T13:14:28.512Z,24.18
2019-02-10T13:16:59.377Z,18.23
2019-02-10T13:19:29.507Z,17.70
2019-02-10T13:21:59.685Z,21.80
2019-02-10T13:24:29.705Z,23.62
2019-02-10T13:26:59.962Z,22.27
2019-02-10T13:29:30.288Z,20.90
2019-02-10T13:32:00.411Z,24.45
2019-02-10T13:34:30.705Z,22.60
2019-02-10T13:37:00.898Z,22.45
2019-02-10T13:39:30.965Z,19.77
2019-02-10T13:42:02.772Z,20.92
2019-02-10T13:44:33.006Z,21.82
2019-02-10T13:47:03.225Z,17.15
2019-02-10T13:49:34.357Z,17.75
2019-02-10T13:52:04.450Z,23.05
2019-02-10T13:54:36.439Z,19.30
2019-02-10T13:57:06.417Z,19.80
2019-02-10T13:59:36.768Z,16.62
2019-02-10T14:02:06.956Z,19.80
2019-02-10T14:04:37.157Z,22.60
2019-02-10T14:07:07.269Z,21.73
2019-02-10T14:09:37.410Z,21.12
2019-02-10T14:12:07.579Z,27.48
2019-02-10T14:14:37.800Z,23.92
2019-02-10T14:17:07.885Z,28.65
2019-02-10T14:19:39.023Z,21.62
2019-02-10T14:22:09.118Z,21.60
2019-02-10T14:24:39.277Z,23.20
2019-02-10T14:27:09.315Z,28.35
2019-02-10T14:29:39.403Z,27.75
2019-02-10T14:32:09.574Z,27.77
2019-02-10T14:34:39.663Z,32.58
2019-02-10T14:37:09.734Z,31.07
2019-02-10T14:39:39.877Z,32.60
2019-02-10T14:42:09.933Z,31.05
2019-02-10T14:44:40.025Z,35.33
2019-02-10T14:47:10.285Z,33.15
2019-02-10T14:49:40.340Z,34.63
2019-02-10T14:52:10.638Z,43.98
2019-02-10T14:54:40.900Z,41.90
2019-02-10T14:57:11.159Z,34.88
2019-02-10T14:59:41.282Z,39.13
2019-02-10T15:02:13.477Z,35.70
2019-02-10T15:04:43.608Z,39.83
2019-02-10T15:07:13.777Z,27.67
2019-02-10T15:09:43.812Z,25.25
2019-02-10T15:12:14.010Z,36.58
2019-02-10T15:14:44.157Z,38.53
2019-02-10T15:17:27.062Z,42.95
2019-02-10T15:20:01.668Z,42.80
2019-02-10T15:22:32.398Z,41.37
2019-02-10T15:25:03.789Z,34.63
2019-02-10T15:27:36.257Z,36.48
2019-02-10T15:30:16.150Z,30.57
2019-02-10T15:32:51.727Z,33.55
2019-02-10T15:35:31.857Z,28.57
2019-02-10T15:38:04.818Z,29.37
2019-02-10T15:40:35.479Z,26.52
2019-02-10T15:43:10.555Z,28.25
2019-02-10T15:45:42.530Z,30.32
2019-02-10T15:48:12.615Z,34.10
2019-02-10T15:50:43.995Z,33.83
2019-02-10T15:53:26.265Z,29.27
2019-02-10T15:55:56.232Z,31.12
2019-02-10T15:58:26.580Z,36.73
2019-02-10T16:00:56.770Z,36.30
2019-02-10T16:03:26.898Z,36.58
2019-02-10T16:05:57.231Z,33.70
2019-02-10T16:08:27.602Z,32.65
2019-02-10T16:10:59.962Z,34.73
2019-02-10T16:13:30.656Z,41.25
2019-02-10T16:16:05.907Z,42.58
2019-02-10T16:18:36.237Z,47.70
2019-02-10T16:21:06.824Z,48.68
2019-02-10T16:23:38.175Z,54.38
2019-02-10T16:26:08.698Z,46.15
2019-02-10T16:28:39.658Z,41.95
2019-02-10T16:31:11.038Z,45.70
2019-02-10T16:33:41.993Z,48.28
2019-02-10T16:36:13.653Z,40.08
2019-02-10T16:38:44.028Z,44.20
2019-02-10T16:41:14.899Z,48.85
2019-02-10T16:43:45.365Z,44.63
2019-02-10T16:46:16.180Z,45.73
2019-02-10T16:48:46.723Z,51.77
2019-02-10T16:51:18.932Z,45.03
2019-02-10T16:53:49.213Z,44.77
2019-02-10T16:56:47.950Z,46.73
2019-02-10T16:59:48.195Z,50.63
2019-02-10T17:02:36.200Z,47.98
2019-02-10T17:05:37.209Z,48.73
2019-02-10T17:08:46.821Z,47.98
2019-02-10T17:11:55.540Z,48.42
2019-02-10T17:14:36.477Z,58.25
2019-02-10T17:17:30.602Z,62.75
2019-02-10T17:20:32.384Z,64.77
2019-02-10T17:23:45.361Z,59.88
2019-02-10T17:26:36.608Z,69.12
2019-02-10T17:29:07.277Z,65.83
2019-02-10T17:31:39.494Z,48.65
2019-02-10T17:34:09.819Z,60.12
2019-02-10T17:36:40.204Z,54.03
2019-02-10T17:39:15.593Z,60.52
2019-02-10T17:41:54.594Z,59.15
2019-02-10T17:44:30.182Z,57.23
2019-02-10T17:47:16.053Z,60.92
2019-02-10T17:49:47.287Z,70.62
2019-02-10T17:52:17.836Z,80.62
2019-02-10T17:55:07.318Z,64.50
2019-02-10T17:57:48.625Z,51.45
2019-02-10T18:00:23.196Z,51.15
2019-02-10T18:02:53.794Z,57.45
2019-02-10T18:05:24.134Z,49.85
2019-02-10T18:07:54.413Z,49.90
2019-02-10T18:10:24.814Z,52.75
2019-02-10T18:12:56.234Z,55.73
2019-02-10T18:15:45.454Z,48.42
2019-02-10T18:18:36.294Z,54.33
2019-02-10T18:21:25.540Z,49.65
2019-02-10T18:24:15.014Z,56.20
2019-02-10T18:26:59.892Z,57.27
2019-02-10T18:29:38.274Z,63.92
2019-02-10T18:32:27.568Z,61.02
2019-02-10T18:35:17.038Z,63.83
2019-02-10T18:37:56.675Z,51.95
2019-02-10T18:40:46.016Z,50.50
2019-02-10T18:43:35.334Z,55.10
2019-02-10T18:46:14.994Z,48.68
2019-02-10T18:48:57.594Z,50.85
2019-02-10T18:51:44.232Z,40.95
2019-02-10T18:54:59.227Z,41.88
2019-02-10T18:58:03.031Z,46.37
2019-02-10T19:01:06.574Z,47.95
2019-02-10T19:04:00.852Z,49.07
2019-02-10T19:06:50.084Z,41.80
2019-02-10T19:09:39.504Z,47.35
2019-02-10T19:12:15.435Z,48.33
2019-02-10T19:15:04.798Z,47.15
2019-02-10T19:17:55.013Z,49.42
2019-02-10T19:20:46.157Z,42.55
2019-02-10T19:23:35.265Z,50.73
2019-02-10T19:26:24.590Z,48.60
2019-02-10T19:29:13.683Z,44.95
2019-02-10T19:31:58.829Z,54.95
2019-02-10T19:34:52.609Z,51.40
2019-02-10T19:37:40.541Z,48.00
2019-02-10T19:40:29.009Z,41.70
2019-02-10T19:43:18.249Z,49.80
2019-02-10T19:45:57.183Z,47.48
2019-02-10T19:48:49.791Z,52.55
2019-02-10T19:51:48.070Z,54.93
2019-02-10T19:54:24.923Z,52.48
2019-02-10T19:57:14.298Z,55.48
2019-02-10T20:00:02.051Z,57.10
2019-02-10T20:02:51.402Z,56.25
2019-02-10T20:05:28.094Z,53.23
2019-02-10T20:08:20.110Z,55.28
2019-02-10T20:11:20.465Z,50.48
2019-02-10T20:14:09.662Z,52.67
2019-02-10T20:16:58.966Z,53.40
2019-02-10T20:19:42.146Z,49.60
2019-02-10T20:22:24.342Z,53.40
2019-02-10T20:25:12.642Z,53.05
2019-02-10T20:27:57.322Z,53.78
2019-02-10T20:30:46.498Z,53.90
2019-02-10T20:33:59.598Z,46.33
2019-02-10T20:37:16.782Z,47.90
2019-02-10T20:40:16.898Z,52.40
2019-02-10T20:43:19.915Z,51.75
2019-02-10T20:46:25.593Z,49.47
2019-02-10T20:49:23.703Z,56.93
2019-02-10T20:52:14.691Z,57.58
2019-02-10T20:54:57.683Z,54.48
2019-02-10T20:57:37.127Z,53.08
2019-02-10T21:00:26.099Z,56.77
2019-02-10T21:03:15.374Z,53.25
2019-02-10T21:06:04.426Z,51.50
2019-02-10T21:08:53.623Z,47.50
2019-02-10T21:11:39.873Z,51.67
2019-02-10T21:14:21.438Z,53.38
2019-02-10T21:17:05.575Z,56.67
2019-02-10T21:19:54.808Z,55.35
2019-02-10T21:22:32.931Z,47.23
2019-02-10T21:25:21.889Z,56.75
2019-02-10T21:28:01.304Z,49.35
2019-02-10T21:30:44.244Z,58.28
2019-02-10T21:33:33.428Z,60.17
2019-02-10T21:36:22.604Z,51.48
2019-02-10T21:39:01.505Z,60.70
2019-02-10T21:41:52.340Z,46.23
2019-02-10T21:44:41.417Z,54.77
2019-02-10T21:47:23.916Z,51.53
2019-02-10T21:49:53.982Z,56.58
2019-02-10T21:52:24.109Z,58.40
2019-02-10T21:54:54.267Z,46.53
2019-02-10T21:57:24.981Z,49.38
2019-02-10T21:59:57.181Z,48.20
2019-02-10T22:02:27.217Z,49.88
2019-02-10T22:04:57.330Z,50.30
2019-02-10T22:07:27.628Z,50.63
2019-02-10T22:09:57.858Z,56.73
2019-02-10T22:12:36.833Z,56.02
2019-02-10T22:15:01.155Z,47.43
2019-02-10T22:17:31.436Z,56.67
2019-02-10T22:20:01.624Z,49.15
2019-02-10T22:22:31.740Z,53.33
2019-02-10T22:25:02.303Z,51.70
2019-02-10T22:27:32.559Z,50.85
2019-02-10T22:30:02.657Z,55.73
2019-02-10T22:32:32.819Z,53.78
2019-02-10T22:35:02.821Z,53.70
2019-02-10T22:37:33.060Z,56.65
2019-02-10T22:40:03.284Z,58.28
2019-02-10T22:42:33.404Z,51.65
2019-02-10T22:45:03.610Z,57.43
2019-02-10T22:47:33.862Z,58.23
2019-02-10T22:50:06.178Z,59.33
2019-02-10T22:52:36.283Z,53.68
2019-02-10T22:55:06.838Z,55.60
2019-02-10T22:57:37.009Z,55.70
2019-02-10T23:00:47.951Z,52.27
2019-02-10T23:03:18.669Z,61.20
2019-02-10T23:05:48.872Z,57.43
2019-02-10T23:08:19.451Z,52.80
2019-02-10T23:10:52.009Z,54.53
2019-02-10T23:13:34.874Z,59.08
2019-02-10T23:16:06.276Z,49.77
2019-02-10T23:18:36.463Z,56.63
2019-02-10T23:21:06.564Z,59.13
2019-02-10T23:23:36.523Z,54.67
2019-02-10T23:26:06.823Z,58.70
2019-02-10T23:28:36.913Z,50.40
2019-02-10T23:31:19.913Z,57.30
2019-02-10T23:33:49.933Z,59.15
2019-02-10T23:36:20.011Z,57.00
2019-02-10T23:38:49.981Z,57.58
2019-02-10T23:41:20.078Z,62.00
2019-02-10T23:43:50.204Z,60.80
2019-02-10T23:46:20.442Z,59.40
2019-02-10T23:48:50.576Z,54.93
2019-02-10T23:51:20.531Z,53.30
2019-02-10T23:53:50.477Z,60.67
2019-02-10T23:56:20.484Z,53.95
2019-02-10T23:58:50.509Z,49.00
